createdAt,value
2022-10-14T00:02:14.603Z,101076.66
2022-10-14T00:04:42.070Z,101069.34
2022-10-14T00:07:10.791Z,101065.72
2022-10-14T00:09:39.700Z,101066.69
2022-10-14T00:12:07.465Z,101070.09
2022-10-14T00:14:34.907Z,101070.50
2022-10-14T00:17:02.300Z,101067.69
2022-10-14T00:19:29.693Z,101059.69
2022-10-14T00:21:57.120Z,101065.00
2022-10-14T00:24:25.817Z,101065.97
2022-10-14T00:26:53.230Z,101062.47
2022-10-14T00:29:20.692Z,101057.97
2022-10-14T00:31:48.162Z,101049.97
2022-10-14T00:34:16.443Z,101049.97
2022-10-14T00:36:44.554Z,101057.72
2022-10-14T00:39:15.802Z,101055.03
2022-10-14T00:41:45.334Z,101049.97
2022-10-14T00:44:45.926Z,101051.69
2022-10-14T00:47:13.589Z,101055.31
2022-10-14T00:49:42.338Z,101048.31
2022-10-14T00:52:12.789Z,101065.16
2022-10-14T00:54:42.168Z,101051.69
2022-10-14T00:57:11.071Z,101057.97
2022-10-14T00:59:38.646Z,101049.97
2022-10-14T01:02:06.049Z,101052.66
2022-10-14T01:04:33.494Z,101049.00
2022-10-14T01:07:03.324Z,101045.50
2022-10-14T01:09:32.701Z,101041.00
2022-10-14T01:12:27.675Z,101041.00
2022-10-14T01:14:59.121Z,101033.84
2022-10-14T01:17:31.384Z,101033.97
2022-10-14T01:20:21.497Z,101034.97
2022-10-14T01:22:55.031Z,101037.50
2022-10-14T01:25:26.067Z,101029.63
2022-10-14T01:28:03.271Z,101029.91
2022-10-14T01:30:32.296Z,101038.59
2022-10-14T01:33:10.833Z,101025.41
2022-10-14T01:35:42.849Z,101035.94
2022-10-14T01:38:12.183Z,101037.78
2022-10-14T01:40:42.777Z,101033.53
2022-10-14T01:43:10.209Z,101039.56
2022-10-14T01:45:38.924Z,101030.88
2022-10-14T01:48:06.635Z,101034.25
2022-10-14T01:50:34.126Z,101038.75
2022-10-14T01:53:03.071Z,101033.28
2022-10-14T01:55:34.089Z,101030.59
2022-10-14T01:58:01.933Z,101024.44
2022-10-14T02:00:29.532Z,101025.13
2022-10-14T02:03:03.301Z,101024.44
2022-10-14T02:05:32.812Z,101027.25
2022-10-14T02:08:03.982Z,101024.56
2022-10-14T02:10:38.642Z,101025.28
2022-10-14T02:13:12.952Z,101018.09
2022-10-14T02:15:43.079Z,101023.16
2022-10-14T02:18:14.734Z,101027.25
2022-10-14T02:20:43.227Z,101031.56
2022-10-14T02:23:12.785Z,101029.63
2022-10-14T02:25:41.239Z,101030.47
2022-10-14T02:28:09.030Z,101038.59
2022-10-14T02:30:38.265Z,101038.47
2022-10-14T02:33:05.685Z,101036.78
2022-10-14T02:35:34.472Z,101031.44
2022-10-14T02:38:04.568Z,101040.31
2022-10-14T02:40:34.044Z,101031.56
2022-10-14T02:43:01.558Z,101029.78
2022-10-14T02:45:29.034Z,101030.59
2022-10-14T02:47:56.433Z,101032.31
2022-10-14T02:50:23.875Z,101032.16
2022-10-14T02:52:53.809Z,101033.13
2022-10-14T02:55:21.872Z,101023.56
2022-10-14T02:57:49.301Z,101026.97
2022-10-14T03:00:17.194Z,101027.94
2022-10-14T03:02:44.676Z,101021.91
2022-10-14T03:05:14.177Z,101028.06
2022-10-14T03:07:41.636Z,101023.56
2022-10-14T03:10:13.841Z,101024.56
2022-10-14T03:12:41.293Z,101029.19
2022-10-14T03:15:16.218Z,101016.69
2022-10-14T03:17:43.685Z,101013.31
2022-10-14T03:20:13.633Z,101016.81
2022-10-14T03:22:47.622Z,101011.47
2022-10-14T03:25:17.748Z,101000.81
2022-10-14T03:27:55.936Z,101000.25
2022-10-14T03:30:34.578Z,101000.09
2022-10-14T03:33:12.129Z,101009.81
2022-10-14T03:35:51.815Z,101007.97
2022-10-14T03:38:24.985Z,101007.84
2022-10-14T03:40:54.759Z,101010.50
2022-10-14T03:43:22.252Z,101003.47
2022-10-14T03:45:55.453Z,101011.47
2022-10-14T03:48:25.075Z,101008.69
2022-10-14T03:50:57.191Z,101002.50
2022-10-14T03:53:25.487Z,101003.47
2022-10-14T03:55:54.509Z,100999.97
2022-10-14T03:58:22.168Z,100998.13
2022-10-14T04:00:56.398Z,101004.19
2022-10-14T04:03:35.499Z,101005.31
2022-10-14T04:06:02.948Z,101003.75
2022-10-14T04:08:31.093Z,101002.78
2022-10-14T04:11:04.408Z,100992.09
2022-10-14T04:13:37.411Z,100983.41
2022-10-14T04:16:05.772Z,100981.44
2022-10-14T04:18:37.534Z,100985.06
2022-10-14T04:21:06.693Z,100979.75
2022-10-14T04:23:34.649Z,100978.78
2022-10-14T04:26:11.311Z,100975.41
2022-10-14T04:28:39.554Z,100981.44
2022-10-14T04:31:13.450Z,100982.41
2022-10-14T04:33:55.826Z,100978.78
2022-10-14T04:36:30.269Z,100973.44
2022-10-14T04:39:00.228Z,100972.47
2022-10-14T04:41:29.016Z,100966.53
2022-10-14T04:43:58.811Z,100977.78
2022-10-14T04:46:34.582Z,100965.44
2022-10-14T04:49:02.507Z,100962.06
2022-10-14T04:51:34.974Z,100961.94
2022-10-14T04:54:25.001Z,100957.75
2022-10-14T04:56:58.010Z,100962.50
2022-10-14T04:59:25.996Z,100964.47
2022-10-14T05:01:59.347Z,100961.06
2022-10-14T05:04:35.860Z,100968.78
2022-10-14T05:07:03.813Z,100966.25
2022-10-14T05:09:33.336Z,100962.06
2022-10-14T05:12:02.492Z,100966.53
2022-10-14T05:14:39.604Z,100963.72
2022-10-14T05:17:15.817Z,100964.88
2022-10-14T05:19:43.704Z,100968.63
2022-10-14T05:22:11.417Z,100966.69
2022-10-14T05:24:43.665Z,100962.34
2022-10-14T05:27:12.432Z,100959.81
2022-10-14T05:29:40.311Z,100957.00
2022-10-14T05:32:08.390Z,100966.25
2022-10-14T05:34:42.894Z,100960.09
2022-10-14T05:37:14.712Z,100959.66
2022-10-14T05:39:47.376Z,100955.16
2022-10-14T05:42:20.679Z,100953.38
2022-10-14T05:44:48.966Z,100948.31
2022-10-14T05:47:16.791Z,100960.63
2022-10-14T05:49:45.697Z,100963.31
2022-10-14T05:52:13.542Z,100960.63
2022-10-14T05:54:40.995Z,100955.16
2022-10-14T05:57:09.640Z,100960.63
2022-10-14T05:59:38.477Z,100960.63
2022-10-14T06:02:06.024Z,100952.63
2022-10-14T06:04:34.976Z,100951.53
2022-10-14T06:07:04.518Z,100963.03
2022-10-14T06:09:31.945Z,100961.50
2022-10-14T06:11:59.374Z,100961.38
2022-10-14T06:14:26.847Z,100961.19
2022-10-14T06:16:56.004Z,100966.41
2022-10-14T06:19:24.399Z,100964.59
2022-10-14T06:21:51.788Z,100975.41
2022-10-14T06:24:19.220Z,100971.03
2022-10-14T06:26:48.321Z,100966.69
2022-10-14T06:29:15.965Z,100962.34
2022-10-14T06:31:43.902Z,100960.63
2022-10-14T06:34:12.650Z,100965.28
2022-10-14T06:36:40.075Z,100963.59
2022-10-14T06:39:07.585Z,100963.75
2022-10-14T06:41:35.534Z,100955.88
2022-10-14T06:44:02.927Z,100965.41
2022-10-14T06:46:31.088Z,100955.59
2022-10-14T06:48:58.494Z,100964.84
2022-10-14T06:51:27.261Z,100960.34
2022-10-14T06:53:54.670Z,100967.50
2022-10-14T06:56:22.156Z,100966.53
2022-10-14T06:58:49.548Z,100971.88
2022-10-14T07:01:17.014Z,100971.00
2022-10-14T07:03:44.511Z,100970.31
2022-10-14T07:06:11.950Z,100971.19
2022-10-14T07:08:43.482Z,100964.97
2022-10-14T07:11:10.945Z,100968.34
2022-10-14T07:13:39.938Z,100975.78
2022-10-14T07:16:07.371Z,100966.81
2022-10-14T07:18:34.777Z,100974.94
2022-10-14T07:21:03.470Z,100976.66
2022-10-14T07:23:30.918Z,100975.09
2022-10-14T07:25:59.681Z,100988.41
2022-10-14T07:28:27.198Z,100990.13
2022-10-14T07:30:59.481Z,100986.44
2022-10-14T07:33:26.984Z,100981.56
2022-10-14T07:35:54.414Z,100987.31
2022-10-14T07:38:21.834Z,100986.19
2022-10-14T07:40:58.065Z,100979.31
2022-10-14T07:43:26.921Z,100987.31
2022-10-14T07:46:00.244Z,100986.44
2022-10-14T07:48:32.828Z,100990.53
2022-10-14T07:51:12.449Z,100987.88
2022-10-14T07:53:39.968Z,100983.38
2022-10-14T07:56:07.607Z,100987.88
2022-10-14T07:58:38.916Z,100993.22
2022-10-14T08:01:08.435Z,100978.03
2022-10-14T08:03:35.863Z,100980.56
2022-10-14T08:06:03.871Z,100979.19
2022-10-14T08:08:31.351Z,100988.84
2022-10-14T08:11:03.067Z,100992.34
2022-10-14T08:13:30.779Z,100995.19
2022-10-14T08:15:59.652Z,100986.19
2022-10-14T08:18:27.176Z,100982.13
2022-10-14T08:20:54.616Z,100984.78
2022-10-14T08:23:22.222Z,100988.16
2022-10-14T08:25:49.754Z,100978.44
2022-10-14T08:28:17.397Z,100977.22
2022-10-14T08:30:45.222Z,100973.13
2022-10-14T08:33:14.197Z,100978.34
2022-10-14T08:35:41.644Z,100980.03
2022-10-14T08:38:09.234Z,100976.94
2022-10-14T08:40:46.906Z,100971.31
2022-10-14T08:43:18.607Z,100967.72
2022-10-14T08:45:48.652Z,100975.13
2022-10-14T08:48:19.484Z,100969.63
2022-10-14T08:50:48.777Z,100968.94
2022-10-14T08:53:17.441Z,100955.47
2022-10-14T08:55:48.358Z,100964.06
2022-10-14T08:58:21.617Z,100962.94
2022-10-14T09:00:51.893Z,100963.66
2022-10-14T09:03:22.677Z,100960.16
2022-10-14T09:05:54.656Z,100972.75
2022-10-14T09:08:27.074Z,100962.66
2022-10-14T09:10:54.483Z,100962.94
2022-10-14T09:13:24.781Z,100955.09
2022-10-14T09:15:55.416Z,100949.75
2022-10-14T09:18:27.716Z,100954.22
2022-10-14T09:20:55.215Z,100954.81
2022-10-14T09:23:23.641Z,100950.31
2022-10-14T09:25:57.009Z,100957.63
2022-10-14T09:28:28.700Z,100961.97
2022-10-14T09:30:56.275Z,100955.06
2022-10-14T09:33:24.953Z,100954.38
2022-10-14T09:35:52.420Z,100949.03
2022-10-14T09:38:19.876Z,100950.72
2022-10-14T09:40:49.033Z,100945.66
2022-10-14T09:43:18.307Z,100951.00
2022-10-14T09:45:51.098Z,100950.03
2022-10-14T09:48:19.811Z,100949.72
2022-10-14T09:50:52.582Z,100938.91
2022-10-14T09:53:23.405Z,100938.91
2022-10-14T09:55:53.333Z,100938.78
2022-10-14T09:58:23.486Z,100935.00
2022-10-14T10:00:50.881Z,100923.88
2022-10-14T10:03:28.328Z,100927.28
2022-10-14T10:06:08.328Z,100923.19
2022-10-14T10:08:36.233Z,100913.94
2022-10-14T10:11:06.751Z,100921.06
2022-10-14T10:13:40.272Z,100928.09
2022-10-14T10:16:08.712Z,100921.63
2022-10-14T10:18:36.162Z,100921.63
2022-10-14T10:21:06.623Z,100924.31
2022-10-14T10:23:36.421Z,100912.38
2022-10-14T10:26:26.864Z,100918.25
2022-10-14T10:28:56.129Z,100918.00
2022-10-14T10:31:33.178Z,100901.84
2022-10-14T10:34:05.051Z,100905.19
2022-10-14T10:36:34.459Z,100905.88
2022-10-14T10:39:04.702Z,100902.25
2022-10-14T10:41:53.409Z,100900.81
2022-10-14T10:44:31.187Z,100908.41
2022-10-14T10:47:12.519Z,100909.94
2022-10-14T10:49:50.020Z,100908.00
2022-10-14T10:52:21.445Z,100893.22
2022-10-14T10:54:53.276Z,100903.63
2022-10-14T10:57:30.039Z,100890.69
2022-10-14T10:59:57.676Z,100892.38
2022-10-14T11:02:51.725Z,100889.41
2022-10-14T11:05:22.016Z,100884.19
2022-10-14T11:08:12.765Z,100882.94
2022-10-14T11:11:02.401Z,100885.34
2022-10-14T11:13:38.103Z,100883.09
2022-10-14T11:16:07.588Z,100881.56
2022-10-14T11:18:45.275Z,100883.84
2022-10-14T11:21:16.693Z,100882.28
2022-10-14T11:23:47.965Z,100875.13
2022-10-14T11:26:21.736Z,100875.28
2022-10-14T11:28:53.605Z,100875.44
2022-10-14T11:31:27.902Z,100871.94
2022-10-14T11:34:03.299Z,100874.41
2022-10-14T11:36:33.162Z,100869.91
2022-10-14T11:39:08.612Z,100865.44
2022-10-14T11:41:45.977Z,100850.00
2022-10-14T11:44:15.826Z,100848.88
2022-10-14T11:46:45.203Z,100844.66
2022-10-14T11:49:16.053Z,100854.63
2022-10-14T11:51:44.920Z,100847.50
2022-10-14T11:54:14.827Z,100835.97
2022-10-14T11:56:45.566Z,100845.53
2022-10-14T11:59:23.768Z,100844.66
2022-10-14T12:01:52.834Z,100843.81
2022-10-14T12:04:23.571Z,100835.97
2022-10-14T12:06:53.362Z,100832.31
2022-10-14T12:09:22.991Z,100825.56
2022-10-14T12:11:53.156Z,100833.97
2022-10-14T12:14:22.443Z,100825.28
2022-10-14T12:16:49.888Z,100829.78
2022-10-14T12:19:20.442Z,100832.31
2022-10-14T12:21:50.699Z,100827.13
2022-10-14T12:24:20.039Z,100827.25
2022-10-14T12:26:52.365Z,100825.56
2022-10-14T12:29:21.065Z,100818.28
2022-10-14T12:32:06.314Z,100821.94
2022-10-14T12:34:35.642Z,100826.28
2022-10-14T12:37:50.970Z,100827.25
2022-10-14T12:40:26.593Z,100822.75
2022-10-14T12:43:03.464Z,100822.63
2022-10-14T12:45:32.181Z,100813.78
2022-10-14T12:48:03.495Z,100825.56
2022-10-14T12:50:32.004Z,100807.91
2022-10-14T12:53:00.961Z,100814.06
2022-10-14T12:55:31.026Z,100802.56
2022-10-14T12:58:01.959Z,100800.72
2022-10-14T13:00:30.874Z,100797.91
2022-10-14T13:03:00.928Z,100789.34
2022-10-14T13:05:40.897Z,100791.06
2022-10-14T13:08:11.953Z,100790.03
2022-10-14T13:10:48.257Z,100784.84
2022-10-14T13:13:50.190Z,100780.59
2022-10-14T13:16:55.328Z,100774.16
2022-10-14T13:19:45.208Z,100767.13
2022-10-14T13:22:40.900Z,100774.44
2022-10-14T13:25:16.791Z,100778.81
2022-10-14T13:27:50.209Z,100768.81
2022-10-14T13:30:20.885Z,100762.31
2022-10-14T13:32:49.791Z,100770.19
2022-10-14T13:35:22.374Z,100761.50
2022-10-14T13:37:54.757Z,100761.34
2022-10-14T13:40:23.076Z,100769.50
2022-10-14T13:42:51.957Z,100767.13
2022-10-14T13:45:21.996Z,100760.94
2022-10-14T13:47:49.578Z,100766.97
2022-10-14T13:50:20.252Z,100760.94
2022-10-14T13:52:48.479Z,100764.59
2022-10-14T13:55:16.641Z,100763.06
2022-10-14T13:58:12.571Z,100760.41
2022-10-14T14:00:50.858Z,100766.56
2022-10-14T14:03:21.571Z,100763.91
2022-10-14T14:05:49.030Z,100756.03
2022-10-14T14:08:37.184Z,100757.19
2022-10-14T14:11:21.491Z,100759.97
2022-10-14T14:13:59.239Z,100758.13
2022-10-14T14:16:31.851Z,100753.09
2022-10-14T14:19:14.620Z,100759.44
2022-10-14T14:21:42.108Z,100762.09
2022-10-14T14:24:24.870Z,100757.59
2022-10-14T14:26:54.324Z,100761.38
2022-10-14T14:29:26.627Z,100761.53
2022-10-14T14:32:10.796Z,100759.03
2022-10-14T14:34:39.931Z,100757.19
2022-10-14T14:39:59.471Z,100749.34
2022-10-14T14:42:27.536Z,100748.66
2022-10-14T14:44:55.663Z,100747.50
2022-10-14T14:47:24.515Z,100751.16
2022-10-14T14:50:01.642Z,100743.03
2022-10-14T14:52:42.386Z,100746.81
2022-10-14T14:55:44.456Z,100738.81
2022-10-14T14:58:22.156Z,100744.69
2022-10-14T15:00:50.041Z,100729.09
2022-10-14T15:03:18.828Z,100730.50
2022-10-14T15:05:50.722Z,100725.31
2022-10-14T15:08:20.767Z,100722.78
2022-10-14T15:10:49.171Z,100719.97
2022-10-14T15:13:26.788Z,100723.47
2022-10-14T15:15:54.213Z,100719.16
2022-10-14T15:18:24.507Z,100718.28
2022-10-14T15:20:51.994Z,100717.31
2022-10-14T15:23:42.400Z,100720.38
2022-10-14T15:26:23.456Z,100710.41
2022-10-14T15:29:04.239Z,100711.94
2022-10-14T15:31:31.635Z,100702.25
2022-10-14T15:34:00.319Z,100709.28
2022-10-14T15:36:27.958Z,100707.56
2022-10-14T15:39:00.648Z,100702.25
2022-10-14T15:41:28.217Z,100697.72
2022-10-14T15:43:55.628Z,100692.41
2022-10-14T15:46:55.048Z,100692.94
2022-10-14T15:49:27.757Z,100693.03
2022-10-14T15:51:55.228Z,100689.41
2022-10-14T15:54:27.533Z,100690.03
2022-10-14T15:59:24.277Z,100678.97
2022-10-14T16:01:52.105Z,100686.59
2022-10-14T16:04:22.231Z,100684.06
2022-10-14T16:06:51.146Z,100685.53
2022-10-14T16:09:18.560Z,100677.81
2022-10-14T16:11:45.969Z,100688.50
2022-10-14T16:14:13.604Z,100692.22
2022-10-14T16:16:42.407Z,100686.59
2022-10-14T16:19:09.845Z,100680.44
2022-10-14T16:21:37.271Z,100687.03
2022-10-14T16:24:06.795Z,100693.69
2022-10-14T16:26:34.367Z,100683.28
2022-10-14T16:29:03.293Z,100687.13
2022-10-14T16:31:30.750Z,100684.75
2022-10-14T16:33:58.146Z,100687.69
2022-10-14T16:36:26.600Z,100682.38
2022-10-14T16:38:57.028Z,100686.03
2022-10-14T16:41:29.441Z,100685.31
2022-10-14T16:43:56.841Z,100685.66
2022-10-14T16:46:44.488Z,100688.47
2022-10-14T16:49:11.900Z,100685.78
2022-10-14T16:51:39.342Z,100688.63
2022-10-14T16:54:06.873Z,100688.47
2022-10-14T16:56:53.956Z,100686.78
2022-10-14T16:59:21.678Z,100682.44
2022-10-14T17:01:50.560Z,100677.78
2022-10-14T17:04:19.911Z,100674.44
2022-10-14T17:06:50.818Z,100669.09
2022-10-14T17:09:19.813Z,100667.41
2022-10-14T17:11:49.665Z,100675.41
2022-10-14T17:14:18.216Z,100666.56
2022-10-14T17:16:46.941Z,100667.41
2022-10-14T17:19:14.329Z,100663.91
2022-10-14T17:21:41.728Z,100669.38
2022-10-14T17:24:10.811Z,100670.22
2022-10-14T17:26:38.212Z,100666.56
2022-10-14T17:29:06.908Z,100663.19
2022-10-14T17:31:37.717Z,100672.88
2022-10-14T17:34:08.513Z,100667.69
2022-10-14T17:36:35.887Z,100667.56
2022-10-14T17:39:03.468Z,100669.94
2022-10-14T17:41:30.940Z,100668.25
2022-10-14T17:43:59.931Z,100665.72
2022-10-14T17:46:31.378Z,100660.38
2022-10-14T17:49:00.119Z,100664.88
2022-10-14T17:51:28.197Z,100663.91
2022-10-14T17:53:56.972Z,100660.38
2022-10-14T17:56:24.524Z,100662.22
2022-10-14T17:58:54.762Z,100660.69
2022-10-14T18:01:36.709Z,100656.19
2022-10-14T18:04:11.448Z,100659.84
2022-10-14T18:06:39.325Z,100657.03
2022-10-14T18:09:07.587Z,100657.84
2022-10-14T18:11:56.577Z,100661.69
2022-10-14T18:14:26.678Z,100662.34
2022-10-14T18:16:54.166Z,100651.97
2022-10-14T18:19:22.889Z,100652.84
2022-10-14T18:21:51.552Z,100645.81
2022-10-14T18:24:18.968Z,100638.78
2022-10-14T18:26:46.407Z,100632.63
2022-10-14T18:29:13.803Z,100628.09
2022-10-14T18:31:41.229Z,100628.09
2022-10-14T18:34:10.211Z,100624.59
2022-10-14T18:36:39.012Z,100629.81
2022-10-14T18:39:08.241Z,100630.94
2022-10-14T18:41:36.851Z,100631.94
2022-10-14T18:44:04.553Z,100629.50
2022-10-14T18:46:32.648Z,100620.69
2022-10-14T18:49:01.258Z,100620.97
2022-10-14T18:51:29.665Z,100628.09
2022-10-14T18:53:59.165Z,100613.09
2022-10-14T18:56:27.369Z,100608.91
2022-10-14T18:58:55.803Z,100605.41
2022-10-14T19:01:23.708Z,100600.88
2022-10-14T19:03:51.585Z,100597.41
2022-10-14T19:06:19.196Z,100593.75
2022-10-14T19:08:46.609Z,100592.19
2022-10-14T19:11:17.031Z,100601.75
2022-10-14T19:13:45.133Z,100603.69
2022-10-14T19:16:16.133Z,100599.22
2022-10-14T19:18:43.640Z,100601.03
2022-10-14T19:21:11.786Z,100607.09
2022-10-14T19:23:39.700Z,100595.56
2022-10-14T19:26:07.351Z,100599.22
2022-10-14T19:28:36.067Z,100595.56
2022-10-14T19:31:06.132Z,100595.25
2022-10-14T19:33:35.412Z,100595.41
2022-10-14T19:36:02.838Z,100593.91
2022-10-14T19:38:30.246Z,100578.84
2022-10-14T19:40:59.427Z,100580.41
2022-10-14T19:43:26.910Z,100573.91
2022-10-14T19:45:55.608Z,100572.25
2022-10-14T19:48:23.006Z,100568.56
2022-10-14T19:50:50.402Z,100563.25
2022-10-14T19:53:17.859Z,100565.75
2022-10-14T19:55:45.287Z,100565.63
2022-10-14T19:58:12.695Z,100560.72
2022-10-14T20:00:40.097Z,100553.41
2022-10-14T20:03:08.790Z,100546.25
2022-10-14T20:05:36.205Z,100538.94
2022-10-14T20:08:03.706Z,100543.44
2022-10-14T20:10:31.211Z,100545.38
2022-10-14T20:12:58.613Z,100548.06
2022-10-14T20:15:26.011Z,100548.06
2022-10-14T20:17:53.419Z,100551.44
2022-10-14T20:20:22.126Z,100545.25
2022-10-14T20:22:49.523Z,100542.44
2022-10-14T20:25:16.928Z,100540.63
2022-10-14T20:27:44.316Z,100526.41
2022-10-14T20:30:12.764Z,100533.59
2022-10-14T20:32:40.202Z,100532.75
2022-10-14T20:35:10.465Z,100532.75
2022-10-14T20:37:42.909Z,100527.81
2022-10-14T20:40:11.387Z,100523.44
2022-10-14T20:42:38.781Z,100523.31
2022-10-14T20:45:07.934Z,100521.63
2022-10-14T20:47:35.328Z,100520.19
2022-10-14T20:50:02.925Z,100521.16
2022-10-14T20:52:30.323Z,100521.84
2022-10-14T20:54:59.030Z,100520.38
2022-10-14T20:57:26.441Z,100517.91
2022-10-14T20:59:53.847Z,100512.56
2022-10-14T21:02:21.554Z,100512.56
2022-10-14T21:04:49.030Z,100515.75
2022-10-14T21:07:16.427Z,100512.38
2022-10-14T21:09:43.815Z,100503.53
2022-10-14T21:12:12.510Z,100499.91
2022-10-14T21:14:39.908Z,100490.19
2022-10-14T21:17:07.335Z,100477.88
2022-10-14T21:19:35.004Z,100485.00
2022-10-14T21:22:03.596Z,100481.34
2022-10-14T21:24:31.195Z,100467.19
2022-10-14T21:26:58.645Z,100470.38
2022-10-14T21:29:27.341Z,100469.84
2022-10-14T21:31:54.731Z,100455.34
2022-10-14T21:34:24.644Z,100468.84
2022-10-14T21:36:52.044Z,100464.53
2022-10-14T21:39:19.489Z,100471.81
2022-10-14T21:41:49.075Z,100468.00
2022-10-14T21:44:20.558Z,100464.19
2022-10-14T21:46:49.503Z,100455.50
2022-10-14T21:49:17.122Z,100467.88
2022-10-14T21:51:44.591Z,100461.66
2022-10-14T21:54:12.723Z,100451.84
2022-10-14T21:56:40.145Z,100460.84
2022-10-14T21:59:07.607Z,100457.50
2022-10-14T22:01:35.139Z,100457.19
2022-10-14T22:04:04.861Z,100451.00
2022-10-14T22:06:32.391Z,100449.84
2022-10-14T22:09:00.485Z,100440.88
2022-10-14T22:11:28.989Z,100436.50
2022-10-14T22:13:57.162Z,100434.66
2022-10-14T22:16:24.619Z,100424.31
2022-10-14T22:18:53.487Z,100427.69
2022-10-14T22:21:23.913Z,100423.16
2022-10-14T22:23:51.382Z,100417.16
2022-10-14T22:26:19.560Z,100409.16
2022-10-14T22:28:47.204Z,100405.97
2022-10-14T22:31:16.043Z,100394.91
2022-10-14T22:33:43.794Z,100393.75
2022-10-14T22:36:12.254Z,100392.75
2022-10-14T22:38:41.721Z,100391.06
2022-10-14T22:41:09.796Z,100384.75
2022-10-14T22:43:37.214Z,100384.75
2022-10-14T22:51:02.856Z,100382.09
2022-10-14T22:55:58.794Z,100375.75
2022-10-14T22:58:26.337Z,100372.41
2022-10-14T23:00:53.750Z,100367.22
2022-10-14T23:03:21.222Z,100372.41
2022-10-14T23:05:49.275Z,100376.06
2022-10-14T23:08:17.618Z,100378.41
2022-10-14T23:13:13.561Z,100370.41
2022-10-14T23:15:40.967Z,100365.94
2022-10-14T23:18:08.357Z,100365.06
2022-10-14T23:20:36.123Z,100362.25
2022-10-14T23:23:03.532Z,100362.41
2022-10-14T23:27:58.175Z,100351.03
2022-10-14T23:30:26.874Z,100353.56
2022-10-14T23:32:54.309Z,100361.41
2022-10-14T23:35:21.697Z,100362.41
2022-10-14T23:37:49.100Z,100350.75
2022-10-14T23:40:16.661Z,100351.56
2022-10-14T23:42:44.044Z,100356.91
2022-10-14T23:45:11.803Z,100355.25
2022-10-14T23:47:40.490Z,100351.56
2022-10-14T23:50:08.776Z,100351.56
2022-10-14T23:52:36.172Z,100348.91
2022-10-14T23:55:03.590Z,100342.38
2022-10-14T23:57:30.985Z,100342.38
2022-10-14T23:59:58.394Z,100336.06
